sensor_id;sensor_type;location;lat;lon;timestamp;P1;durP1;ratioP1;P2;durP2;ratioP2
67132;SDS011;54052;53.542;49.408;2023-03-01T00:01:32;5.03;;;4.15;;
67132;SDS011;54052;53.542;49.408;2023-03-01T00:03:58;6.70;;;4.78;;
67132;SDS011;54052;53.542;49.408;2023-03-01T00:06:25;6.53;;;4.55;;
67132;SDS011;54052;53.542;49.408;2023-03-01T00:08:52;5.93;;;4.43;;
67132;SDS011;54052;53.542;49.408;2023-03-01T00:11:20;4.50;;;4.07;;
67132;SDS011;54052;53.542;49.408;2023-03-01T00:13:49;6.40;;;4.00;;
67132;SDS011;54052;53.542;49.408;2023-03-01T00:16:17;5.88;;;4.20;;
67132;SDS011;54052;53.542;49.408;2023-03-01T00:18:46;5.18;;;4.05;;
67132;SDS011;54052;53.542;49.408;2023-03-01T00:21:12;4.97;;;4.35;;
67132;SDS011;54052;53.542;49.408;2023-03-01T00:23:39;5.40;;;4.53;;
67132;SDS011;54052;53.542;49.408;2023-03-01T00:26:06;4.32;;;3.75;;
67132;SDS011;54052;53.542;49.408;2023-03-01T00:28:34;5.75;;;4.75;;
67132;SDS011;54052;53.542;49.408;2023-03-01T00:31:07;6.90;;;4.55;;
67132;SDS011;54052;53.542;49.408;2023-03-01T00:33:35;3.83;;;3.50;;
67132;SDS011;54052;53.542;49.408;2023-03-01T00:36:01;5.10;;;4.57;;
67132;SDS011;54052;53.542;49.408;2023-03-01T00:38:28;4.68;;;3.83;;
67132;SDS011;54052;53.542;49.408;2023-03-01T00:40:54;18.35;;;14.40;;
67132;SDS011;54052;53.542;49.408;2023-03-01T00:43:20;8.55;;;3.97;;
67132;SDS011;54052;53.542;49.408;2023-03-01T00:45:46;6.20;;;4.03;;
67132;SDS011;54052;53.542;49.408;2023-03-01T00:48:12;4.53;;;4.05;;
67132;SDS011;54052;53.542;49.408;2023-03-01T00:50:38;4.22;;;3.75;;
67132;SDS011;54052;53.542;49.408;2023-03-01T00:53:05;4.57;;;3.50;;
67132;SDS011;54052;53.542;49.408;2023-03-01T00:55:31;4.40;;;4.00;;
67132;SDS011;54052;53.542;49.408;2023-03-01T00:57:56;5.03;;;4.30;;
67132;SDS011;54052;53.542;49.408;2023-03-01T01:00:22;4.45;;;3.92;;
67132;SDS011;54052;53.542;49.408;2023-03-01T01:02:48;4.32;;;3.80;;
67132;SDS011;54052;53.542;49.408;2023-03-01T01:05:14;5.03;;;4.15;;
67132;SDS011;54052;53.542;49.408;2023-03-01T01:07:46;4.25;;;3.88;;
67132;SDS011;54052;53.542;49.408;2023-03-01T01:10:13;4.30;;;3.58;;
67132;SDS011;54052;53.542;49.408;2023-03-01T01:12:43;4.47;;;3.70;;
67132;SDS011;54052;53.542;49.408;2023-03-01T01:15:12;4.28;;;3.88;;
67132;SDS011;54052;53.542;49.408;2023-03-01T01:17:39;4.05;;;3.63;;
67132;SDS011;54052;53.542;49.408;2023-03-01T01:20:06;4.35;;;3.80;;
67132;SDS011;54052;53.542;49.408;2023-03-01T01:22:32;4.10;;;3.70;;
67132;SDS011;54052;53.542;49.408;2023-03-01T01:24:58;4.22;;;3.78;;
67132;SDS011;54052;53.542;49.408;2023-03-01T01:27:24;3.67;;;3.38;;
67132;SDS011;54052;53.542;49.408;2023-03-01T01:29:52;5.88;;;3.40;;
67132;SDS011;54052;53.542;49.408;2023-03-01T01:32:18;5.80;;;4.05;;
67132;SDS011;54052;53.542;49.408;2023-03-01T01:34:44;4.00;;;3.60;;
67132;SDS011;54052;53.542;49.408;2023-03-01T01:37:11;4.07;;;3.63;;
67132;SDS011;54052;53.542;49.408;2023-03-01T01:39:37;4.25;;;3.85;;
67132;SDS011;54052;53.542;49.408;2023-03-01T01:42:03;4.30;;;3.58;;
67132;SDS011;54052;53.542;49.408;2023-03-01T01:44:30;4.63;;;3.53;;
67132;SDS011;54052;53.542;49.408;2023-03-01T01:51:50;3.65;;;3.35;;
67132;SDS011;54052;53.542;49.408;2023-03-01T01:54:25;4.60;;;3.83;;
67132;SDS011;54052;53.542;49.408;2023-03-01T01:56:58;4.18;;;3.63;;
67132;SDS011;54052;53.542;49.408;2023-03-01T01:59:27;3.90;;;3.50;;
67132;SDS011;54052;53.542;49.408;2023-03-01T02:01:53;4.35;;;3.95;;
67132;SDS011;54052;53.542;49.408;2023-03-01T02:04:20;3.67;;;3.38;;
67132;SDS011;54052;53.542;49.408;2023-03-01T02:07:28;3.92;;;3.45;;
67132;SDS011;54052;53.542;49.408;2023-03-01T02:09:41;4.28;;;3.35;;
67132;SDS011;54052;53.542;49.408;2023-03-01T02:12:10;5.30;;;3.60;;
67132;SDS011;54052;53.542;49.408;2023-03-01T02:14:37;5.13;;;4.10;;
67132;SDS011;54052;53.542;49.408;2023-03-01T02:17:05;4.28;;;3.70;;
67132;SDS011;54052;53.542;49.408;2023-03-01T02:22:33;5.22;;;3.72;;
67132;SDS011;54052;53.542;49.408;2023-03-01T02:30:39;4.20;;;3.55;;
67132;SDS011;54052;53.542;49.408;2023-03-01T02:33:26;6.60;;;3.50;;
67132;SDS011;54052;53.542;49.408;2023-03-01T02:35:53;4.28;;;3.88;;
67132;SDS011;54052;53.542;49.408;2023-03-01T02:38:21;5.28;;;4.13;;
67132;SDS011;54052;53.542;49.408;2023-03-01T02:40:48;4.00;;;3.60;;
67132;SDS011;54052;53.542;49.408;2023-03-01T02:43:16;7.20;;;6.38;;
67132;SDS011;54052;53.542;49.408;2023-03-01T02:45:49;9.60;;;8.68;;
67132;SDS011;54052;53.542;49.408;2023-03-01T02:48:16;9.93;;;8.98;;
67132;SDS011;54052;53.542;49.408;2023-03-01T02:51:01;4.55;;;4.10;;
67132;SDS011;54052;53.542;49.408;2023-03-01T02:56:52;4.38;;;3.95;;
67132;SDS011;54052;53.542;49.408;2023-03-01T02:59:22;5.78;;;4.63;;
67132;SDS011;54052;53.542;49.408;2023-03-01T03:01:56;4.60;;;4.20;;
67132;SDS011;54052;53.542;49.408;2023-03-01T03:04:22;4.97;;;4.07;;
67132;SDS011;54052;53.542;49.408;2023-03-01T03:06:49;3.38;;;3.08;;
67132;SDS011;54052;53.542;49.408;2023-03-01T03:09:16;4.63;;;3.50;;
67132;SDS011;54052;53.542;49.408;2023-03-01T03:11:43;5.00;;;3.85;;
67132;SDS011;54052;53.542;49.408;2023-03-01T03:14:10;4.22;;;3.83;;
67132;SDS011;54052;53.542;49.408;2023-03-01T03:16:47;4.38;;;3.65;;
67132;SDS011;54052;53.542;49.408;2023-03-01T03:19:17;4.18;;;3.78;;
67132;SDS011;54052;53.542;49.408;2023-03-01T03:21:44;4.85;;;4.13;;
67132;SDS011;54052;53.542;49.408;2023-03-01T03:24:10;4.88;;;4.15;;
67132;SDS011;54052;53.542;49.408;2023-03-01T03:26:36;5.75;;;3.45;;
67132;SDS011;54052;53.542;49.408;2023-03-01T03:29:02;5.82;;;3.90;;
67132;SDS011;54052;53.542;49.408;2023-03-01T03:31:28;4.93;;;4.03;;
67132;SDS011;54052;53.542;49.408;2023-03-01T03:33:57;6.25;;;4.22;;
67132;SDS011;54052;53.542;49.408;2023-03-01T03:36:24;5.72;;;4.78;;
67132;SDS011;54052;53.542;49.408;2023-03-01T03:38:53;9.75;;;4.45;;
67132;SDS011;54052;53.542;49.408;2023-03-01T03:41:19;5.05;;;3.83;;
67132;SDS011;54052;53.542;49.408;2023-03-01T03:43:45;6.35;;;4.35;;
67132;SDS011;54052;53.542;49.408;2023-03-01T03:48:15;4.97;;;4.07;;
67132;SDS011;54052;53.542;49.408;2023-03-01T03:50:49;6.25;;;3.95;;
67132;SDS011;54052;53.542;49.408;2023-03-01T03:53:17;5.40;;;3.67;;
67132;SDS011;54052;53.542;49.408;2023-03-01T03:55:44;4.45;;;4.05;;
67132;SDS011;54052;53.542;49.408;2023-03-01T03:58:10;4.57;;;4.18;;
67132;SDS011;54052;53.542;49.408;2023-03-01T04:00:38;5.22;;;4.15;;
67132;SDS011;54052;53.542;49.408;2023-03-01T04:03:06;4.75;;;3.67;;
67132;SDS011;54052;53.542;49.408;2023-03-01T04:05:33;7.03;;;3.83;;
67132;SDS011;54052;53.542;49.408;2023-03-01T04:08:00;4.43;;;3.97;;
67132;SDS011;54052;53.542;49.408;2023-03-01T04:10:27;4.53;;;4.13;;
67132;SDS011;54052;53.542;49.408;2023-03-01T04:12:55;5.70;;;3.85;;
67132;SDS011;54052;53.542;49.408;2023-03-01T04:15:21;9.88;;;7.70;;
67132;SDS011;54052;53.542;49.408;2023-03-01T04:17:49;7.70;;;4.85;;
67132;SDS011;54052;53.542;49.408;2023-03-01T04:20:18;5.43;;;4.22;;
67132;SDS011;54052;53.542;49.408;2023-03-01T04:22:52;6.15;;;4.07;;
67132;SDS011;54052;53.542;49.408;2023-03-01T04:25:23;5.43;;;3.92;;
67132;SDS011;54052;53.542;49.408;2023-03-01T04:27:49;5.78;;;5.25;;
67132;SDS011;54052;53.542;49.408;2023-03-01T04:30:15;8.85;;;4.13;;
67132;SDS011;54052;53.542;49.408;2023-03-01T04:32:41;6.07;;;4.03;;
67132;SDS011;54052;53.542;49.408;2023-03-01T04:35:08;4.85;;;4.18;;
67132;SDS011;54052;53.542;49.408;2023-03-01T04:37:34;4.65;;;3.95;;
67132;SDS011;54052;53.542;49.408;2023-03-01T04:40:00;4.28;;;3.30;;
67132;SDS011;54052;53.542;49.408;2023-03-01T04:42:37;5.28;;;3.90;;
67132;SDS011;54052;53.542;49.408;2023-03-01T04:45:04;3.45;;;3.22;;
67132;SDS011;54052;53.542;49.408;2023-03-01T04:47:41;4.05;;;3.33;;
67132;SDS011;54052;53.542;49.408;2023-03-01T04:50:10;5.10;;;3.25;;
67132;SDS011;54052;53.542;49.408;2023-03-01T04:52:38;3.70;;;3.40;;
67132;SDS011;54052;53.542;49.408;2023-03-01T04:55:04;4.28;;;3.88;;
67132;SDS011;54052;53.542;49.408;2023-03-01T04:57:31;4.63;;;3.40;;
67132;SDS011;54052;53.542;49.408;2023-03-01T04:59:57;3.58;;;3.28;;
67132;SDS011;54052;53.542;49.408;2023-03-01T05:02:24;3.47;;;3.17;;
67132;SDS011;54052;53.542;49.408;2023-03-01T05:04:50;3.47;;;2.50;;
67132;SDS011;54052;53.542;49.408;2023-03-01T05:07:16;5.68;;;3.22;;
67132;SDS011;54052;53.542;49.408;2023-03-01T05:09:47;3.55;;;3.10;;
67132;SDS011;54052;53.542;49.408;2023-03-01T05:12:14;3.53;;;2.53;;
67132;SDS011;54052;53.542;49.408;2023-03-01T05:14:40;3.83;;;2.75;;
67132;SDS011;54052;53.542;49.408;2023-03-01T05:17:07;4.03;;;2.58;;
67132;SDS011;54052;53.542;49.408;2023-03-01T05:19:33;4.25;;;3.00;;
67132;SDS011;54052;53.542;49.408;2023-03-01T05:22:00;3.53;;;2.65;;
67132;SDS011;54052;53.542;49.408;2023-03-01T05:24:33;2.33;;;2.05;;
67132;SDS011;54052;53.542;49.408;2023-03-01T05:27:01;3.10;;;2.80;;
67132;SDS011;54052;53.542;49.408;2023-03-01T05:29:29;3.60;;;2.42;;
67132;SDS011;54052;53.542;49.408;2023-03-01T05:31:57;3.83;;;2.20;;
67132;SDS011;54052;53.542;49.408;2023-03-01T05:34:28;3.38;;;2.13;;
67132;SDS011;54052;53.542;49.408;2023-03-01T05:36:58;3.55;;;2.55;;
67132;SDS011;54052;53.542;49.408;2023-03-01T05:39:25;3.65;;;2.45;;
67132;SDS011;54052;53.542;49.408;2023-03-01T05:41:53;4.63;;;2.53;;
67132;SDS011;54052;53.542;49.408;2023-03-01T05:44:24;3.78;;;2.13;;
67132;SDS011;54052;53.542;49.408;2023-03-01T05:46:50;3.75;;;2.40;;
67132;SDS011;54052;53.542;49.408;2023-03-01T05:49:17;3.35;;;2.63;;
67132;SDS011;54052;53.542;49.408;2023-03-01T05:51:47;2.25;;;2.00;;
67132;SDS011;54052;53.542;49.408;2023-03-01T05:54:15;3.50;;;2.38;;
67132;SDS011;54052;53.542;49.408;2023-03-01T05:56:41;2.28;;;2.08;;
67132;SDS011;54052;53.542;49.408;2023-03-01T05:59:07;3.05;;;1.85;;
67132;SDS011;54052;53.542;49.408;2023-03-01T06:01:34;2.85;;;2.55;;
67132;SDS011;54052;53.542;49.408;2023-03-01T06:04:01;2.80;;;2.30;;
67132;SDS011;54052;53.542;49.408;2023-03-01T06:06:28;2.55;;;2.10;;
67132;SDS011;54052;53.542;49.408;2023-03-01T06:08:54;2.75;;;2.10;;
67132;SDS011;54052;53.542;49.408;2023-03-01T06:11:21;1.55;;;1.20;;
67132;SDS011;54052;53.542;49.408;2023-03-01T06:13:47;4.60;;;1.67;;
67132;SDS011;54052;53.542;49.408;2023-03-01T06:16:13;5.88;;;1.75;;
67132;SDS011;54052;53.542;49.408;2023-03-01T06:18:39;1.73;;;1.20;;
67132;SDS011;54052;53.542;49.408;2023-03-01T06:21:07;1.10;;;0.85;;
67132;SDS011;54052;53.542;49.408;2023-03-01T06:23:33;2.30;;;1.10;;
67132;SDS011;54052;53.542;49.408;2023-03-01T06:26:00;2.30;;;1.20;;
67132;SDS011;54052;53.542;49.408;2023-03-01T06:28:30;2.25;;;1.30;;
67132;SDS011;54052;53.542;49.408;2023-03-01T06:30:56;1.88;;;1.23;;
67132;SDS011;54052;53.542;49.408;2023-03-01T06:33:22;3.38;;;1.88;;
67132;SDS011;54052;53.542;49.408;2023-03-01T06:35:50;6.22;;;1.73;;
67132;SDS011;54052;53.542;49.408;2023-03-01T06:38:16;1.60;;;1.50;;
67132;SDS011;54052;53.542;49.408;2023-03-01T06:40:44;1.88;;;0.90;;
67132;SDS011;54052;53.542;49.408;2023-03-01T06:43:16;4.22;;;1.80;;
67132;SDS011;54052;53.542;49.408;2023-03-01T06:45:42;3.47;;;2.33;;
67132;SDS011;54052;53.542;49.408;2023-03-01T06:48:08;3.30;;;1.55;;
67132;SDS011;54052;53.542;49.408;2023-03-01T06:50:34;3.72;;;1.70;;
67132;SDS011;54052;53.542;49.408;2023-03-01T06:53:01;4.05;;;1.02;;
67132;SDS011;54052;53.542;49.408;2023-03-01T06:55:27;8.00;;;1.17;;
67132;SDS011;54052;53.542;49.408;2023-03-01T06:57:56;1.88;;;0.80;;
67132;SDS011;54052;53.542;49.408;2023-03-01T07:00:23;2.15;;;0.88;;
67132;SDS011;54052;53.542;49.408;2023-03-01T07:02:50;1.83;;;0.73;;
67132;SDS011;54052;53.542;49.408;2023-03-01T07:05:16;2.20;;;0.90;;
67132;SDS011;54052;53.542;49.408;2023-03-01T07:07:42;3.88;;;0.90;;
67132;SDS011;54052;53.542;49.408;2023-03-01T07:10:08;4.78;;;1.20;;
67132;SDS011;54052;53.542;49.408;2023-03-01T07:12:35;5.35;;;0.93;;
67132;SDS011;54052;53.542;49.408;2023-03-01T07:15:02;4.57;;;1.50;;
67132;SDS011;54052;53.542;49.408;2023-03-01T07:17:29;2.30;;;0.82;;
67132;SDS011;54052;53.542;49.408;2023-03-01T07:19:55;2.50;;;1.13;;
67132;SDS011;54052;53.542;49.408;2023-03-01T07:22:21;6.25;;;2.83;;
67132;SDS011;54052;53.542;49.408;2023-03-01T07:24:47;14.48;;;5.35;;
67132;SDS011;54052;53.542;49.408;2023-03-01T07:27:13;11.02;;;4.20;;
67132;SDS011;54052;53.542;49.408;2023-03-01T07:29:39;8.95;;;3.22;;
67132;SDS011;54052;53.542;49.408;2023-03-01T07:32:05;3.13;;;1.08;;
67132;SDS011;54052;53.542;49.408;2023-03-01T07:34:32;5.55;;;1.27;;
67132;SDS011;54052;53.542;49.408;2023-03-01T07:36:58;2.50;;;1.38;;
67132;SDS011;54052;53.542;49.408;2023-03-01T07:39:24;6.32;;;1.35;;
67132;SDS011;54052;53.542;49.408;2023-03-01T07:41:50;4.35;;;1.30;;
67132;SDS011;54052;53.542;49.408;2023-03-01T07:44:16;5.68;;;1.70;;
67132;SDS011;54052;53.542;49.408;2023-03-01T07:46:43;2.97;;;1.75;;
67132;SDS011;54052;53.542;49.408;2023-03-01T07:49:09;5.80;;;1.17;;
67132;SDS011;54052;53.542;49.408;2023-03-01T07:51:35;1.55;;;1.00;;
67132;SDS011;54052;53.542;49.408;2023-03-01T07:54:01;6.13;;;0.90;;
67132;SDS011;54052;53.542;49.408;2023-03-01T07:56:27;2.42;;;0.80;;
67132;SDS011;54052;53.542;49.408;2023-03-01T07:58:53;2.88;;;0.75;;
67132;SDS011;54052;53.542;49.408;2023-03-01T08:01:22;2.75;;;1.00;;
67132;SDS011;54052;53.542;49.408;2023-03-01T08:03:48;1.73;;;0.70;;
67132;SDS011;54052;53.542;49.408;2023-03-01T08:06:15;4.22;;;0.80;;
67132;SDS011;54052;53.542;49.408;2023-03-01T08:08:42;4.93;;;1.10;;
67132;SDS011;54052;53.542;49.408;2023-03-01T08:11:09;2.42;;;1.20;;
67132;SDS011;54052;53.542;49.408;2023-03-01T08:13:37;2.45;;;0.95;;
67132;SDS011;54052;53.542;49.408;2023-03-01T08:16:06;3.30;;;1.10;;
67132;SDS011;54052;53.542;49.408;2023-03-01T08:18:35;3.67;;;0.90;;
67132;SDS011;54052;53.542;49.408;2023-03-01T08:21:02;4.40;;;1.35;;
67132;SDS011;54052;53.542;49.408;2023-03-01T08:23:36;2.08;;;0.52;;
67132;SDS011;54052;53.542;49.408;2023-03-01T08:26:06;3.75;;;0.98;;
67132;SDS011;54052;53.542;49.408;2023-03-01T08:28:32;2.60;;;0.82;;
67132;SDS011;54052;53.542;49.408;2023-03-01T08:30:59;1.17;;;0.40;;
67132;SDS011;54052;53.542;49.408;2023-03-01T08:33:25;0.70;;;0.35;;
67132;SDS011;54052;53.542;49.408;2023-03-01T08:35:51;1.45;;;0.47;;
67132;SDS011;54052;53.542;49.408;2023-03-01T08:38:16;0.50;;;0.30;;
67132;SDS011;54052;53.542;49.408;2023-03-01T08:40:42;2.33;;;0.60;;
67132;SDS011;54052;53.542;49.408;2023-03-01T08:43:08;0.77;;;0.30;;
67132;SDS011;54052;53.542;49.408;2023-03-01T08:45:34;2.10;;;0.40;;
67132;SDS011;54052;53.542;49.408;2023-03-01T08:48:00;0.73;;;0.38;;
67132;SDS011;54052;53.542;49.408;2023-03-01T08:50:26;0.68;;;0.40;;
67132;SDS011;54052;53.542;49.408;2023-03-01T08:52:52;0.70;;;0.30;;
67132;SDS011;54052;53.542;49.408;2023-03-01T08:55:18;14.90;;;0.50;;
67132;SDS011;54052;53.542;49.408;2023-03-01T08:57:44;1.40;;;0.35;;
67132;SDS011;54052;53.542;49.408;2023-03-01T09:00:10;5.32;;;0.60;;
67132;SDS011;54052;53.542;49.408;2023-03-01T09:02:36;2.05;;;0.50;;
67132;SDS011;54052;53.542;49.408;2023-03-01T09:05:04;2.25;;;0.40;;
67132;SDS011;54052;53.542;49.408;2023-03-01T09:07:30;4.50;;;0.30;;
67132;SDS011;54052;53.542;49.408;2023-03-01T09:09:56;1.35;;;0.38;;
67132;SDS011;54052;53.542;49.408;2023-03-01T09:12:22;1.33;;;0.40;;
67132;SDS011;54052;53.542;49.408;2023-03-01T09:14:48;0.93;;;0.28;;
67132;SDS011;54052;53.542;49.408;2023-03-01T09:17:14;1.00;;;0.30;;
67132;SDS011;54052;53.542;49.408;2023-03-01T09:19:40;1.40;;;0.65;;
67132;SDS011;54052;53.542;49.408;2023-03-01T09:22:06;1.70;;;0.70;;
67132;SDS011;54052;53.542;49.408;2023-03-01T09:24:32;2.05;;;0.50;;
67132;SDS011;54052;53.542;49.408;2023-03-01T09:26:58;10.85;;;0.65;;
67132;SDS011;54052;53.542;49.408;2023-03-01T09:29:24;3.53;;;0.52;;
67132;SDS011;54052;53.542;49.408;2023-03-01T09:31:51;3.42;;;0.50;;
67132;SDS011;54052;53.542;49.408;2023-03-01T09:34:20;0.82;;;0.30;;
67132;SDS011;54052;53.542;49.408;2023-03-01T09:36:49;1.23;;;0.30;;
67132;SDS011;54052;53.542;49.408;2023-03-01T09:39:15;0.82;;;0.38;;
67132;SDS011;54052;53.542;49.408;2023-03-01T09:41:44;2.60;;;0.30;;
67132;SDS011;54052;53.542;49.408;2023-03-01T09:47:18;2.88;;;0.80;;
67132;SDS011;54052;53.542;49.408;2023-03-01T09:50:13;26.95;;;2.10;;
67132;SDS011;54052;53.542;49.408;2023-03-01T09:55:16;6.38;;;1.02;;
67132;SDS011;54052;53.542;49.408;2023-03-01T09:57:50;7.18;;;1.15;;
67132;SDS011;54052;53.542;49.408;2023-03-01T10:02:59;1.85;;;0.70;;
67132;SDS011;54052;53.542;49.408;2023-03-01T10:05:49;4.03;;;0.70;;
67132;SDS011;54052;53.542;49.408;2023-03-01T10:08:43;2.13;;;0.60;;
67132;SDS011;54052;53.542;49.408;2023-03-01T10:11:20;2.10;;;0.63;;
67132;SDS011;54052;53.542;49.408;2023-03-01T10:13:55;4.10;;;0.70;;
67132;SDS011;54052;53.542;49.408;2023-03-01T10:16:38;1.50;;;0.45;;
67132;SDS011;54052;53.542;49.408;2023-03-01T10:19:14;4.00;;;1.00;;
67132;SDS011;54052;53.542;49.408;2023-03-01T10:22:29;2.33;;;0.90;;
67132;SDS011;54052;53.542;49.408;2023-03-01T10:24:58;3.55;;;0.75;;
67132;SDS011;54052;53.542;49.408;2023-03-01T10:27:38;2.05;;;0.63;;
67132;SDS011;54052;53.542;49.408;2023-03-01T10:32:58;3.03;;;0.73;;
67132;SDS011;54052;53.542;49.408;2023-03-01T10:35:25;11.45;;;1.00;;
67132;SDS011;54052;53.542;49.408;2023-03-01T10:38:11;2.17;;;0.60;;
67132;SDS011;54052;53.542;49.408;2023-03-01T10:43:20;1.67;;;0.50;;
67132;SDS011;54052;53.542;49.408;2023-03-01T10:45:47;1.90;;;0.70;;
67132;SDS011;54052;53.542;49.408;2023-03-01T10:48:23;3.80;;;0.90;;
67132;SDS011;54052;53.542;49.408;2023-03-01T10:53:27;6.10;;;0.75;;
67132;SDS011;54052;53.542;49.408;2023-03-01T10:55:56;1.05;;;0.50;;
67132;SDS011;54052;53.542;49.408;2023-03-01T10:58:31;3.20;;;0.80;;
67132;SDS011;54052;53.542;49.408;2023-03-01T11:01:03;1.40;;;0.60;;
67132;SDS011;54052;53.542;49.408;2023-03-01T11:06:31;1.60;;;0.50;;
67132;SDS011;54052;53.542;49.408;2023-03-01T11:09:01;2.17;;;0.63;;
67132;SDS011;54052;53.542;49.408;2023-03-01T11:11:44;1.35;;;0.55;;
67132;SDS011;54052;53.542;49.408;2023-03-01T11:14:15;1.92;;;0.60;;
67132;SDS011;54052;53.542;49.408;2023-03-01T11:16:58;4.70;;;0.80;;
67132;SDS011;54052;53.542;49.408;2023-03-01T11:19:26;7.82;;;0.70;;
67132;SDS011;54052;53.542;49.408;2023-03-01T11:24:39;3.60;;;0.80;;
67132;SDS011;54052;53.542;49.408;2023-03-01T11:27:31;5.07;;;1.42;;
67132;SDS011;54052;53.542;49.408;2023-03-01T11:30:02;2.03;;;0.55;;
67132;SDS011;54052;53.542;49.408;2023-03-01T11:32:34;1.63;;;0.52;;
67132;SDS011;54052;53.542;49.408;2023-03-01T11:35:09;2.55;;;0.95;;
67132;SDS011;54052;53.542;49.408;2023-03-01T11:40:23;6.95;;;0.82;;
67132;SDS011;54052;53.542;49.408;2023-03-01T11:42:56;0.90;;;0.30;;
67132;SDS011;54052;53.542;49.408;2023-03-01T11:51:00;2.55;;;0.40;;
67132;SDS011;54052;53.542;49.408;2023-03-01T11:53:42;3.80;;;0.82;;
67132;SDS011;54052;53.542;49.408;2023-03-01T11:56:35;1.80;;;0.30;;
67132;SDS011;54052;53.542;49.408;2023-03-01T11:59:31;1.73;;;0.38;;
67132;SDS011;54052;53.542;49.408;2023-03-01T12:10:33;5.10;;;0.77;;
67132;SDS011;54052;53.542;49.408;2023-03-01T12:24:31;5.55;;;1.35;;
67132;SDS011;54052;53.542;49.408;2023-03-01T12:27:45;4.28;;;1.20;;
67132;SDS011;54052;53.542;49.408;2023-03-01T12:46:47;4.40;;;1.15;;
67132;SDS011;54052;53.542;49.408;2023-03-01T12:49:43;8.32;;;1.40;;
67132;SDS011;54052;53.542;49.408;2023-03-01T12:52:19;1.38;;;0.70;;
67132;SDS011;54052;53.542;49.408;2023-03-01T12:54:48;2.50;;;0.75;;
67132;SDS011;54052;53.542;49.408;2023-03-01T12:57:50;3.60;;;1.08;;
67132;SDS011;54052;53.542;49.408;2023-03-01T13:10:49;2.85;;;0.75;;
67132;SDS011;54052;53.542;49.408;2023-03-01T13:13:23;8.75;;;1.15;;
67132;SDS011;54052;53.542;49.408;2023-03-01T13:15:51;3.13;;;0.93;;
67132;SDS011;54052;53.542;49.408;2023-03-01T13:21:02;4.03;;;0.73;;
67132;SDS011;54052;53.542;49.408;2023-03-01T13:23:32;5.20;;;0.65;;
67132;SDS011;54052;53.542;49.408;2023-03-01T13:26:04;2.90;;;0.68;;
67132;SDS011;54052;53.542;49.408;2023-03-01T13:30:59;4.13;;;1.00;;
67132;SDS011;54052;53.542;49.408;2023-03-01T13:35:57;2.10;;;0.50;;
67132;SDS011;54052;53.542;49.408;2023-03-01T13:49:20;10.90;;;0.88;;
67132;SDS011;54052;53.542;49.408;2023-03-01T13:51:49;5.63;;;1.00;;
67132;SDS011;54052;53.542;49.408;2023-03-01T13:54:35;7.72;;;0.80;;
67132;SDS011;54052;53.542;49.408;2023-03-01T13:57:04;4.88;;;0.73;;
67132;SDS011;54052;53.542;49.408;2023-03-01T13:59:31;3.15;;;0.70;;
67132;SDS011;54052;53.542;49.408;2023-03-01T14:01:58;2.25;;;0.70;;
67132;SDS011;54052;53.542;49.408;2023-03-01T14:04:28;3.03;;;1.33;;
67132;SDS011;54052;53.542;49.408;2023-03-01T14:07:12;5.32;;;1.92;;
67132;SDS011;54052;53.542;49.408;2023-03-01T14:09:43;3.08;;;0.80;;
67132;SDS011;54052;53.542;49.408;2023-03-01T14:17:45;4.38;;;1.20;;
67132;SDS011;54052;53.542;49.408;2023-03-01T14:22:57;3.38;;;0.98;;
67132;SDS011;54052;53.542;49.408;2023-03-01T14:25:28;2.67;;;0.93;;
67132;SDS011;54052;53.542;49.408;2023-03-01T14:30:34;2.58;;;1.02;;
67132;SDS011;54052;53.542;49.408;2023-03-01T14:33:17;3.28;;;0.88;;
67132;SDS011;54052;53.542;49.408;2023-03-01T14:35:58;4.40;;;0.90;;
67132;SDS011;54052;53.542;49.408;2023-03-01T14:40:57;2.00;;;0.70;;
67132;SDS011;54052;53.542;49.408;2023-03-01T14:43:27;5.47;;;0.70;;
67132;SDS011;54052;53.542;49.408;2023-03-01T14:45:55;4.65;;;0.70;;
67132;SDS011;54052;53.542;49.408;2023-03-01T14:48:21;5.60;;;0.70;;
67132;SDS011;54052;53.542;49.408;2023-03-01T14:50:48;8.18;;;0.75;;
67132;SDS011;54052;53.542;49.408;2023-03-01T14:53:19;4.95;;;1.17;;
67132;SDS011;54052;53.542;49.408;2023-03-01T14:55:50;5.68;;;1.30;;
67132;SDS011;54052;53.542;49.408;2023-03-01T14:58:24;8.95;;;1.60;;
67132;SDS011;54052;53.542;49.408;2023-03-01T15:00:55;5.22;;;1.10;;
67132;SDS011;54052;53.542;49.408;2023-03-01T15:03:49;2.33;;;0.80;;
67132;SDS011;54052;53.542;49.408;2023-03-01T15:06:17;3.90;;;0.70;;
67132;SDS011;54052;53.542;49.408;2023-03-01T15:08:46;3.72;;;0.90;;
67132;SDS011;54052;53.542;49.408;2023-03-01T15:11:17;2.22;;;0.85;;
67132;SDS011;54052;53.542;49.408;2023-03-01T15:13:53;1.73;;;0.80;;
67132;SDS011;54052;53.542;49.408;2023-03-01T15:16:23;2.95;;;0.70;;
67132;SDS011;54052;53.542;49.408;2023-03-01T15:19:00;4.45;;;0.90;;
67132;SDS011;54052;53.542;49.408;2023-03-01T15:21:38;1.85;;;0.70;;
67132;SDS011;54052;53.542;49.408;2023-03-01T15:24:24;2.47;;;0.90;;
67132;SDS011;54052;53.542;49.408;2023-03-01T15:26:57;6.47;;;0.90;;
67132;SDS011;54052;53.542;49.408;2023-03-01T15:29:32;3.08;;;1.08;;
67132;SDS011;54052;53.542;49.408;2023-03-01T15:32:04;6.05;;;1.00;;
67132;SDS011;54052;53.542;49.408;2023-03-01T15:34:38;2.58;;;0.80;;
67132;SDS011;54052;53.542;49.408;2023-03-01T15:37:05;2.42;;;0.80;;
67132;SDS011;54052;53.542;49.408;2023-03-01T15:39:53;4.75;;;1.15;;
67132;SDS011;54052;53.542;49.408;2023-03-01T15:47:52;2.38;;;0.80;;
67132;SDS011;54052;53.542;49.408;2023-03-01T15:50:25;4.90;;;0.98;;
67132;SDS011;54052;53.542;49.408;2023-03-01T15:53:11;1.83;;;0.75;;
67132;SDS011;54052;53.542;49.408;2023-03-01T15:55:39;1.48;;;0.55;;
67132;SDS011;54052;53.542;49.408;2023-03-01T15:58:22;5.53;;;1.02;;
67132;SDS011;54052;53.542;49.408;2023-03-01T16:00:50;4.63;;;1.40;;
67132;SDS011;54052;53.542;49.408;2023-03-01T16:03:21;2.53;;;0.60;;
67132;SDS011;54052;53.542;49.408;2023-03-01T16:05:48;2.67;;;0.40;;
67132;SDS011;54052;53.542;49.408;2023-03-01T16:08:15;1.88;;;0.40;;
67132;SDS011;54052;53.542;49.408;2023-03-01T16:10:42;2.15;;;0.40;;
67132;SDS011;54052;53.542;49.408;2023-03-01T16:13:11;0.95;;;0.45;;
67132;SDS011;54052;53.542;49.408;2023-03-01T16:15:38;1.75;;;0.60;;
67132;SDS011;54052;53.542;49.408;2023-03-01T16:18:05;2.67;;;0.60;;
67132;SDS011;54052;53.542;49.408;2023-03-01T16:20:33;1.33;;;0.45;;
67132;SDS011;54052;53.542;49.408;2023-03-01T16:23:04;9.77;;;0.95;;
67132;SDS011;54052;53.542;49.408;2023-03-01T16:25:32;1.23;;;0.50;;
67132;SDS011;54052;53.542;49.408;2023-03-01T16:27:59;5.75;;;0.77;;
67132;SDS011;54052;53.542;49.408;2023-03-01T16:30:29;4.53;;;0.43;;
67132;SDS011;54052;53.542;49.408;2023-03-01T16:32:55;3.75;;;0.63;;
67132;SDS011;54052;53.542;49.408;2023-03-01T16:35:21;1.23;;;0.35;;
67132;SDS011;54052;53.542;49.408;2023-03-01T16:37:48;0.57;;;0.30;;
67132;SDS011;54052;53.542;49.408;2023-03-01T16:42:49;1.85;;;0.60;;
67132;SDS011;54052;53.542;49.408;2023-03-01T16:45:16;2.88;;;0.63;;
67132;SDS011;54052;53.542;49.408;2023-03-01T16:47:43;3.45;;;0.90;;
67132;SDS011;54052;53.542;49.408;2023-03-01T16:50:09;3.63;;;0.73;;
67132;SDS011;54052;53.542;49.408;2023-03-01T16:52:36;4.53;;;0.80;;
67132;SDS011;54052;53.542;49.408;2023-03-01T16:55:02;3.40;;;1.25;;
67132;SDS011;54052;53.542;49.408;2023-03-01T16:57:30;5.25;;;1.50;;
67132;SDS011;54052;53.542;49.408;2023-03-01T16:59:56;7.35;;;1.65;;
67132;SDS011;54052;53.542;49.408;2023-03-01T17:02:22;13.15;;;2.35;;
67132;SDS011;54052;53.542;49.408;2023-03-01T17:04:52;7.78;;;2.95;;